createdAt,value
2019-05-15T00:00:58.890Z,5.95
2019-05-15T00:03:28.857Z,5.83
2019-05-15T00:05:58.693Z,5.73
2019-05-15T00:08:28.807Z,5.60
2019-05-15T00:10:58.822Z,5.67
2019-05-15T00:13:28.452Z,5.60
2019-05-15T00:15:59.022Z,4.90
2019-05-15T00:18:28.895Z,4.97
2019-05-15T00:20:59.461Z,5.12
2019-05-15T00:23:30.317Z,5.83
2019-05-15T00:26:00.140Z,5.28
2019-05-15T00:28:29.744Z,5.80
2019-05-15T00:30:59.490Z,5.30
2019-05-15T00:33:29.409Z,5.42
2019-05-15T00:35:59.118Z,5.20
2019-05-15T00:38:28.832Z,5.62
2019-05-15T00:40:58.682Z,5.70
2019-05-15T00:43:29.106Z,5.30
2019-05-15T00:45:58.882Z,5.00
2019-05-15T00:48:29.207Z,5.75
2019-05-15T00:50:59.898Z,5.12
2019-05-15T00:53:29.607Z,5.45
2019-05-15T00:55:59.128Z,5.15
2019-05-15T00:58:28.728Z,5.30
2019-05-15T01:00:59.185Z,4.90
2019-05-15T01:03:28.699Z,5.60
2019-05-15T01:05:58.625Z,5.27
2019-05-15T01:08:28.582Z,5.17
2019-05-15T01:10:58.491Z,5.33
2019-05-15T01:13:28.309Z,5.40
2019-05-15T01:15:58.291Z,5.10
2019-05-15T01:18:29.256Z,4.78
2019-05-15T01:20:59.284Z,4.65
2019-05-15T01:23:28.938Z,4.20
2019-05-15T01:25:58.872Z,5.05
2019-05-15T01:28:28.975Z,4.17
2019-05-15T01:30:59.656Z,4.23
2019-05-15T01:33:29.544Z,4.00
2019-05-15T01:35:59.190Z,4.70
2019-05-15T01:38:28.744Z,4.58
2019-05-15T01:40:59.151Z,4.90
2019-05-15T01:43:29.269Z,4.42
2019-05-15T01:45:59.226Z,4.83
2019-05-15T01:48:28.628Z,4.83
2019-05-15T01:50:58.513Z,4.95
2019-05-15T01:53:29.045Z,5.15
2019-05-15T01:55:59.070Z,5.40
2019-05-15T01:58:28.873Z,4.37
2019-05-15T02:00:58.969Z,5.12
2019-05-15T02:03:29.760Z,5.17
2019-05-15T02:06:00.653Z,6.00
2019-05-15T02:08:30.166Z,5.20
2019-05-15T02:10:59.853Z,5.43
2019-05-15T02:13:29.322Z,5.17
2019-05-15T02:15:59.878Z,5.45
2019-05-15T02:18:29.396Z,5.33
2019-05-15T02:20:59.199Z,5.33
2019-05-15T02:23:28.722Z,5.87
2019-05-15T02:25:58.871Z,5.70
2019-05-15T02:28:28.994Z,6.05
2019-05-15T02:30:59.704Z,6.20
2019-05-15T02:33:30.025Z,6.27
2019-05-15T02:36:00.945Z,6.33
2019-05-15T02:38:30.485Z,6.58
2019-05-15T02:41:00.075Z,6.27
2019-05-15T02:43:30.064Z,6.53
2019-05-15T02:46:00.625Z,6.07
2019-05-15T02:48:30.300Z,7.00
2019-05-15T02:50:59.797Z,6.77
2019-05-15T02:53:30.116Z,6.37
2019-05-15T02:56:00.349Z,6.93
2019-05-15T02:58:29.973Z,6.70
2019-05-15T03:00:59.813Z,7.03
2019-05-15T03:03:29.659Z,6.13
2019-05-15T03:06:00.095Z,6.50
2019-05-15T03:08:30.208Z,7.13
2019-05-15T03:10:59.655Z,7.77
2019-05-15T03:13:30.090Z,7.67
2019-05-15T03:16:00.132Z,8.38
2019-05-15T03:18:29.831Z,7.67
2019-05-15T03:21:00.323Z,7.07
2019-05-15T03:23:30.074Z,7.80
2019-05-15T03:26:04.089Z,7.33
2019-05-15T03:28:31.466Z,7.70
2019-05-15T03:31:22.377Z,7.72
2019-05-15T03:33:36.705Z,7.53
2019-05-15T03:36:03.841Z,8.88
2019-05-15T03:38:34.640Z,8.43
2019-05-15T03:41:04.429Z,7.47
2019-05-15T03:43:34.031Z,8.57
2019-05-15T03:46:03.609Z,8.28
2019-05-15T03:48:33.062Z,11.47
2019-05-15T03:51:02.728Z,8.78
2019-05-15T03:53:32.357Z,9.40
2019-05-15T03:56:02.105Z,8.40
2019-05-15T03:58:31.854Z,8.68
2019-05-15T04:01:01.567Z,7.57
2019-05-15T04:03:31.146Z,10.43
2019-05-15T04:06:00.773Z,7.53
2019-05-15T04:08:30.465Z,8.15
2019-05-15T04:11:00.396Z,8.77
2019-05-15T04:13:30.304Z,8.53
2019-05-15T04:16:00.099Z,9.45
2019-05-15T04:18:29.865Z,11.88
2019-05-15T04:21:00.317Z,8.17
2019-05-15T04:23:30.393Z,8.08
2019-05-15T04:26:00.161Z,8.23
2019-05-15T04:28:30.324Z,8.40
2019-05-15T04:31:00.029Z,8.55
2019-05-15T04:33:30.978Z,8.75
2019-05-15T04:36:00.531Z,8.10
2019-05-15T04:38:30.157Z,8.80
2019-05-15T04:40:59.960Z,9.60
2019-05-15T04:43:35.095Z,9.05
2019-05-15T04:46:03.110Z,9.30
2019-05-15T04:48:32.270Z,9.70
2019-05-15T04:51:01.928Z,8.73
2019-05-15T04:53:33.087Z,9.83
2019-05-15T04:56:02.763Z,9.15
2019-05-15T04:58:32.362Z,8.47
2019-05-15T05:01:01.820Z,8.43
2019-05-15T05:03:34.330Z,9.05
2019-05-15T05:06:02.843Z,8.30
2019-05-15T05:08:32.533Z,9.30
2019-05-15T05:11:02.145Z,10.80
2019-05-15T05:13:32.039Z,9.97
2019-05-15T05:16:01.847Z,10.03
2019-05-15T05:18:31.269Z,10.15
2019-05-15T05:21:00.979Z,9.08
2019-05-15T05:23:30.423Z,9.08
2019-05-15T05:26:00.036Z,10.00
2019-05-15T05:28:29.433Z,9.33
2019-05-15T05:30:59.048Z,8.83
2019-05-15T05:33:28.848Z,9.37
2019-05-15T05:35:58.620Z,10.03
2019-05-15T05:38:28.396Z,9.20
2019-05-15T05:40:58.742Z,8.73
2019-05-15T05:43:29.937Z,9.60
2019-05-15T05:45:59.547Z,8.63
2019-05-15T05:48:29.348Z,9.20
2019-05-15T05:50:59.994Z,9.17
2019-05-15T05:53:29.545Z,9.50
2019-05-15T05:55:59.153Z,9.98
2019-05-15T05:58:29.751Z,9.33
2019-05-15T06:00:59.527Z,9.53
2019-05-15T06:03:29.310Z,9.65
2019-05-15T06:05:59.236Z,10.00
2019-05-15T06:08:28.800Z,9.13
2019-05-15T06:10:58.676Z,8.68
2019-05-15T06:13:29.075Z,9.17
2019-05-15T06:15:59.201Z,8.87
2019-05-15T06:18:28.657Z,8.63
2019-05-15T06:20:58.751Z,8.53
2019-05-15T06:23:35.167Z,8.03
2019-05-15T06:25:59.497Z,8.53
2019-05-15T06:28:30.433Z,8.63
2019-05-15T06:31:00.714Z,11.35
2019-05-15T06:33:31.789Z,9.83
2019-05-15T06:36:01.293Z,8.73
2019-05-15T06:38:31.178Z,8.50
2019-05-15T06:41:01.027Z,9.43
2019-05-15T06:43:30.528Z,9.23
2019-05-15T06:46:00.100Z,9.10
2019-05-15T06:48:29.599Z,9.78
2019-05-15T06:50:59.272Z,9.58
2019-05-15T06:53:29.129Z,9.70
2019-05-15T06:55:58.678Z,10.77
2019-05-15T06:58:28.980Z,9.83
2019-05-15T07:00:59.261Z,9.10
2019-05-15T07:03:29.545Z,9.53
2019-05-15T07:05:59.900Z,10.93
2019-05-15T07:08:29.659Z,8.90
2019-05-15T07:10:59.031Z,9.93
2019-05-15T07:13:29.776Z,9.90
2019-05-15T07:15:59.462Z,9.00
2019-05-15T07:18:28.793Z,10.57
2019-05-15T07:20:58.252Z,9.73
2019-05-15T07:23:30.554Z,10.35
2019-05-15T07:25:58.969Z,10.18
2019-05-15T07:28:28.812Z,11.07
2019-05-15T07:30:58.693Z,10.97
2019-05-15T07:33:36.780Z,10.58
2019-05-15T07:35:59.295Z,10.88
2019-05-15T07:38:28.664Z,10.33
2019-05-15T07:41:03.331Z,10.53
2019-05-15T07:43:29.376Z,10.40
2019-05-15T07:45:59.169Z,11.47
2019-05-15T07:48:29.283Z,10.30
2019-05-15T07:50:59.448Z,10.28
2019-05-15T07:53:29.407Z,10.80
2019-05-15T07:56:00.983Z,11.87
2019-05-15T07:58:29.908Z,12.50
2019-05-15T08:00:59.500Z,12.65
2019-05-15T08:03:29.359Z,12.43
2019-05-15T08:06:03.083Z,12.60
2019-05-15T08:08:31.367Z,13.25
2019-05-15T08:11:14.890Z,13.03
2019-05-15T08:13:31.824Z,13.13
2019-05-15T08:16:01.193Z,12.83
2019-05-15T08:18:32.172Z,14.97
2019-05-15T08:21:03.041Z,13.48
2019-05-15T08:23:32.379Z,13.80
2019-05-15T08:26:01.685Z,14.85
2019-05-15T08:28:31.021Z,19.07
2019-05-15T08:31:00.545Z,13.83
2019-05-15T08:33:30.052Z,11.78
2019-05-15T08:35:59.765Z,12.47
2019-05-15T08:38:29.139Z,12.47
2019-05-15T08:40:59.228Z,12.35
2019-05-15T08:43:31.259Z,13.22
2019-05-15T08:45:59.881Z,14.05
2019-05-15T08:48:32.793Z,13.90
2019-05-15T08:51:01.427Z,13.08
2019-05-15T08:53:30.891Z,12.75
2019-05-15T08:56:00.354Z,12.28
2019-05-15T08:58:30.887Z,12.07
2019-05-15T09:01:00.286Z,12.58
2019-05-15T09:03:29.733Z,12.37
2019-05-15T09:05:59.319Z,11.95
2019-05-15T09:08:29.583Z,13.22
2019-05-15T09:10:59.155Z,13.32
2019-05-15T09:13:29.650Z,14.53
2019-05-15T09:15:59.294Z,15.58
2019-05-15T09:18:28.824Z,16.12
2019-05-15T09:20:59.333Z,15.58
2019-05-15T09:23:29.287Z,17.42
2019-05-15T09:25:58.698Z,15.85
2019-05-15T09:28:29.616Z,17.42
2019-05-15T09:30:59.265Z,18.10
2019-05-15T09:33:28.876Z,17.17
2019-05-15T09:35:58.550Z,16.67
2019-05-15T09:38:28.894Z,18.37
2019-05-15T09:40:58.858Z,17.70
2019-05-15T09:43:28.641Z,19.15
2019-05-15T09:45:58.449Z,19.67
2019-05-15T09:48:28.692Z,19.37
2019-05-15T09:50:58.853Z,19.15
2019-05-15T09:53:28.666Z,20.32
2019-05-15T09:55:59.971Z,20.15
2019-05-15T09:58:30.305Z,21.25
2019-05-15T10:00:59.808Z,20.80
2019-05-15T10:03:30.308Z,20.32
2019-05-15T10:05:59.781Z,20.00
2019-05-15T10:08:29.420Z,21.45
2019-05-15T10:10:59.495Z,22.42
2019-05-15T10:13:29.097Z,21.23
2019-05-15T10:15:58.692Z,20.35
2019-05-15T10:18:28.379Z,19.82
2019-05-15T10:20:58.277Z,19.73
2019-05-15T10:23:29.162Z,21.17
2019-05-15T10:25:59.215Z,20.62
2019-05-15T10:28:29.366Z,20.17
2019-05-15T10:31:00.049Z,19.63
2019-05-15T10:33:29.837Z,20.43
2019-05-15T10:35:59.331Z,19.17
2019-05-15T10:38:28.970Z,22.13
2019-05-15T10:41:08.072Z,19.92
2019-05-15T10:43:29.460Z,20.68
2019-05-15T10:45:58.899Z,19.80
2019-05-15T10:48:29.558Z,19.27
2019-05-15T10:51:06.287Z,19.20
2019-05-15T10:53:31.137Z,20.05
2019-05-15T10:56:02.687Z,18.85
2019-05-15T10:58:31.587Z,19.73
2019-05-15T11:01:02.485Z,19.27
2019-05-15T11:03:34.905Z,19.57
2019-05-15T11:06:02.970Z,18.87
2019-05-15T11:08:32.585Z,18.98
2019-05-15T11:11:02.073Z,17.98
2019-05-15T11:13:31.691Z,19.80
2019-05-15T11:16:01.097Z,20.12
2019-05-15T11:18:30.924Z,20.00
2019-05-15T11:21:00.331Z,20.02
2019-05-15T11:23:29.860Z,20.15
2019-05-15T11:25:59.238Z,20.35
2019-05-15T11:28:31.919Z,22.58
2019-05-15T11:30:59.704Z,20.30
2019-05-15T11:33:29.557Z,21.90
2019-05-15T11:36:05.446Z,23.67
2019-05-15T11:38:30.585Z,21.75
2019-05-15T11:41:04.500Z,22.07
2019-05-15T11:43:32.619Z,22.13
2019-05-15T11:46:02.062Z,23.60
2019-05-15T11:48:31.589Z,22.45
2019-05-15T11:51:01.064Z,23.05
2019-05-15T11:53:30.457Z,23.47
2019-05-15T11:56:00.373Z,25.23
2019-05-15T11:58:30.046Z,24.65
2019-05-15T12:00:59.704Z,26.10
2019-05-15T12:03:29.344Z,25.52
2019-05-15T12:06:14.582Z,25.92
2019-05-15T12:08:31.597Z,24.92
2019-05-15T12:11:01.073Z,25.80
2019-05-15T12:13:30.748Z,26.17
2019-05-15T12:16:00.483Z,27.48
2019-05-15T12:18:29.914Z,27.45
2019-05-15T12:20:59.833Z,25.52
2019-05-15T12:23:30.338Z,26.52
2019-05-15T12:26:00.138Z,26.97
2019-05-15T12:28:29.911Z,27.02
2019-05-15T12:31:00.374Z,25.95
2019-05-15T12:33:31.225Z,27.13
2019-05-15T12:36:01.247Z,26.87
2019-05-15T12:38:30.647Z,28.00
2019-05-15T13:01:16.846Z,28.57
2019-05-15T13:03:42.553Z,29.00
2019-05-15T13:06:12.156Z,30.02
2019-05-15T13:08:41.970Z,29.15
2019-05-15T13:11:15.193Z,30.32
2019-05-15T13:13:43.011Z,31.10
2019-05-15T13:16:12.555Z,31.70
2019-05-15T13:18:42.023Z,29.90
2019-05-15T13:21:11.684Z,29.67
2019-05-15T13:23:41.095Z,29.63
2019-05-15T13:26:23.076Z,29.72
2019-05-15T13:28:41.961Z,29.90
2019-05-15T13:31:11.516Z,29.75
2019-05-15T13:33:41.126Z,30.08
2019-05-15T13:36:10.873Z,28.30
2019-05-15T13:38:40.321Z,28.10
2019-05-15T13:41:09.989Z,27.87
2019-05-15T13:43:40.337Z,27.93
2019-05-15T13:46:09.978Z,28.35
2019-05-15T13:48:39.628Z,27.13
2019-05-15T13:51:09.102Z,27.42
2019-05-15T13:53:39.119Z,29.15
2019-05-15T13:56:09.057Z,30.10
2019-05-15T13:58:38.939Z,29.50
2019-05-15T14:01:09.878Z,30.65
2019-05-15T14:03:39.726Z,29.72
2019-05-15T14:06:10.168Z,28.57
2019-05-15T14:08:40.265Z,32.03
2019-05-15T14:11:09.829Z,30.05
2019-05-15T14:13:39.526Z,29.75
2019-05-15T14:16:09.736Z,27.80
2019-05-15T14:18:39.520Z,25.45
2019-05-15T14:21:10.170Z,23.92
2019-05-15T14:23:39.775Z,28.12
2019-05-15T14:26:17.887Z,25.02
2019-05-15T14:28:41.339Z,24.65
2019-05-15T14:31:11.761Z,24.37
2019-05-15T14:33:48.743Z,22.73
2019-05-15T14:36:18.679Z,20.95
2019-05-15T14:38:48.626Z,22.93
2019-05-15T14:41:18.951Z,23.22
2019-05-15T14:43:49.531Z,22.85
2019-05-15T14:46:19.078Z,22.27
2019-05-15T14:48:49.289Z,22.45
2019-05-15T14:51:19.370Z,23.07
2019-05-15T14:53:49.156Z,22.17
2019-05-15T14:56:19.169Z,22.75
2019-05-15T14:58:49.800Z,21.70
2019-05-15T15:01:19.228Z,21.20
2019-05-15T15:03:48.912Z,20.80
2019-05-15T15:06:19.069Z,21.20
2019-05-15T15:08:48.976Z,21.33
2019-05-15T15:11:18.888Z,20.08
2019-05-15T15:13:48.562Z,19.87
2019-05-15T15:16:19.385Z,19.87
2019-05-15T15:18:49.107Z,20.95
2019-05-15T15:21:22.494Z,21.77
2019-05-15T15:23:49.773Z,23.18
2019-05-15T15:26:19.349Z,23.05
2019-05-15T15:28:49.095Z,22.93
2019-05-15T15:31:19.296Z,21.82
2019-05-15T15:33:49.211Z,26.68
2019-05-15T15:36:18.829Z,30.23
2019-05-15T15:38:48.768Z,31.45
2019-05-15T15:41:18.319Z,34.20
2019-05-15T15:43:48.467Z,25.00
2019-05-15T15:46:19.512Z,22.27
2019-05-15T15:48:49.159Z,24.60
2019-05-15T15:51:18.836Z,23.75
2019-05-15T15:53:49.495Z,25.05
2019-05-15T15:56:19.217Z,24.90
2019-05-15T15:58:49.123Z,25.72
2019-05-15T16:01:18.812Z,25.82
2019-05-15T16:03:48.578Z,29.80
2019-05-15T16:06:18.933Z,34.40
2019-05-15T16:08:55.480Z,52.58
2019-05-15T16:11:19.765Z,35.35
2019-05-15T16:13:49.850Z,32.63
2019-05-15T16:16:20.868Z,33.67
2019-05-15T16:18:50.909Z,33.35
2019-05-15T16:21:20.845Z,30.97
2019-05-15T16:23:50.340Z,32.60
2019-05-15T16:26:19.971Z,35.28
2019-05-15T16:28:49.361Z,34.65
2019-05-15T16:31:19.108Z,37.95
2019-05-15T16:33:48.710Z,39.73
2019-05-15T16:36:18.512Z,41.70
2019-05-15T16:38:48.291Z,42.70
2019-05-15T16:41:18.432Z,46.08
2019-05-15T16:43:48.505Z,42.60
2019-05-15T16:46:19.272Z,41.65
2019-05-15T16:48:50.564Z,41.55
2019-05-15T16:51:20.542Z,42.53
2019-05-15T16:53:50.527Z,42.93
2019-05-15T16:56:20.292Z,43.25
2019-05-15T16:58:49.920Z,40.25
2019-05-15T17:01:19.732Z,40.80
2019-05-15T17:03:49.358Z,40.48
2019-05-15T17:06:20.199Z,42.73
2019-05-15T17:08:50.113Z,39.98
2019-05-15T17:11:20.090Z,38.02
2019-05-15T17:13:49.848Z,48.90
2019-05-15T17:16:20.037Z,43.55
2019-05-15T17:18:49.689Z,38.42
2019-05-15T17:21:19.883Z,38.15
2019-05-15T17:23:50.820Z,37.00
2019-05-15T17:26:20.641Z,37.50
2019-05-15T17:28:49.996Z,37.03
2019-05-15T17:31:19.505Z,37.53
2019-05-15T17:33:49.259Z,38.67
2019-05-15T17:36:19.777Z,39.92
2019-05-15T17:38:49.377Z,37.13
2019-05-15T17:41:18.867Z,36.50
2019-05-15T17:43:48.713Z,36.77
2019-05-15T17:46:18.207Z,37.85
2019-05-15T17:48:55.451Z,37.75
2019-05-15T17:51:19.196Z,37.23
2019-05-15T17:53:48.917Z,36.25
2019-05-15T17:56:18.927Z,38.05
2019-05-15T17:58:50.333Z,37.38
2019-05-15T18:01:20.413Z,37.85
2019-05-15T18:03:51.690Z,39.63
2019-05-15T18:06:21.758Z,37.38
2019-05-15T18:08:51.750Z,38.30
2019-05-15T18:11:22.060Z,57.98
2019-05-15T18:13:51.768Z,41.42
2019-05-15T18:16:21.612Z,39.25
2019-05-15T18:18:51.511Z,38.25
2019-05-15T18:21:21.986Z,35.58
2019-05-15T18:23:52.669Z,35.68
2019-05-15T18:26:22.371Z,34.55
2019-05-15T18:28:52.143Z,36.63
2019-05-15T18:31:21.691Z,35.92
2019-05-15T18:33:53.643Z,39.38
2019-05-15T18:36:23.212Z,36.80
2019-05-15T18:38:52.805Z,33.42
2019-05-15T18:41:23.158Z,33.63
2019-05-15T18:43:52.859Z,33.18
2019-05-15T18:46:22.680Z,30.40
2019-05-15T18:48:52.755Z,31.65
2019-05-15T18:51:22.927Z,32.78
2019-05-15T18:53:52.699Z,31.82
2019-05-15T18:56:22.352Z,34.88
2019-05-15T18:58:51.702Z,36.48
2019-05-15T19:01:22.296Z,31.27
2019-05-15T19:03:51.863Z,29.87
2019-05-15T19:06:21.514Z,29.52
2019-05-15T19:08:53.252Z,29.18
2019-05-15T19:11:23.024Z,28.27
2019-05-15T19:13:52.726Z,29.37
2019-05-15T19:16:22.060Z,31.23
2019-05-15T19:18:51.735Z,27.27
2019-05-15T19:21:21.648Z,26.35
2019-05-15T19:23:51.662Z,27.58
2019-05-15T19:26:21.262Z,28.12
2019-05-15T19:28:51.021Z,25.27
2019-05-15T19:31:26.749Z,26.60
2019-05-15T19:33:51.850Z,28.90
2019-05-15T19:36:22.268Z,27.45
2019-05-15T19:38:52.353Z,26.95
2019-05-15T19:41:22.063Z,27.85
2019-05-15T19:43:51.831Z,26.17
2019-05-15T19:46:22.277Z,27.60
2019-05-15T19:48:52.073Z,28.57
2019-05-15T19:51:22.158Z,27.77
2019-05-15T19:53:52.281Z,28.55
2019-05-15T19:56:22.047Z,26.42
2019-05-15T19:58:51.917Z,28.55
2019-05-15T20:01:21.616Z,27.48
2019-05-15T20:03:53.330Z,27.52
2019-05-15T20:06:22.681Z,27.05
2019-05-15T20:08:52.626Z,27.73
2019-05-15T20:11:22.165Z,28.47
2019-05-15T20:13:51.680Z,26.65
2019-05-15T20:16:21.548Z,27.58
2019-05-15T20:18:51.283Z,28.35
2019-05-15T20:21:20.961Z,27.13
2019-05-15T20:23:50.891Z,26.10
2019-05-15T20:26:20.726Z,26.93
2019-05-15T20:28:50.500Z,27.05
2019-05-15T20:31:20.081Z,26.73
2019-05-15T20:34:02.136Z,26.55
2019-05-15T20:36:21.555Z,26.70
2019-05-15T20:38:51.444Z,26.25
2019-05-15T20:41:21.297Z,26.42
2019-05-15T20:43:50.986Z,27.85
2019-05-15T20:46:21.127Z,27.67
2019-05-15T20:48:51.019Z,26.57
2019-05-15T20:51:20.570Z,26.37
2019-05-15T20:53:51.821Z,26.97
2019-05-15T20:56:21.518Z,27.22
2019-05-15T20:58:51.417Z,26.25
2019-05-15T21:01:21.089Z,25.05
2019-05-15T21:03:51.036Z,26.75
2019-05-15T21:06:21.961Z,28.00
2019-05-15T21:08:51.865Z,25.95
2019-05-15T21:11:21.667Z,25.40
2019-05-15T21:13:51.385Z,25.02
2019-05-15T21:16:20.935Z,24.07
2019-05-15T21:18:50.860Z,21.75
2019-05-15T21:21:20.720Z,20.12
2019-05-15T21:23:50.387Z,18.55
2019-05-15T21:26:19.963Z,17.52
2019-05-15T21:28:49.869Z,17.05
2019-05-15T21:31:22.034Z,16.87
2019-05-15T21:33:51.349Z,15.25
2019-05-15T21:36:20.809Z,15.53
2019-05-15T21:38:50.317Z,14.35
2019-05-15T21:41:20.061Z,14.07
2019-05-15T21:43:50.518Z,12.45
2019-05-15T21:46:20.562Z,12.30
2019-05-15T21:48:50.311Z,12.55
2019-05-15T21:51:20.213Z,12.33
2019-05-15T21:53:49.949Z,12.13
2019-05-15T21:56:19.635Z,12.28
2019-05-15T21:58:49.482Z,12.40
2019-05-15T22:01:19.811Z,12.18
2019-05-15T22:03:49.863Z,12.43
2019-05-15T22:06:19.836Z,11.03
2019-05-15T22:08:49.462Z,11.85
2019-05-15T22:11:23.155Z,11.22
2019-05-15T22:13:52.917Z,12.03
2019-05-15T22:16:23.238Z,11.25
2019-05-15T22:18:52.945Z,11.20
2019-05-15T22:21:22.792Z,11.85
2019-05-15T22:23:52.467Z,12.15
2019-05-15T22:26:22.114Z,12.40
2019-05-15T22:28:51.774Z,12.77
2019-05-15T22:31:22.420Z,13.48
2019-05-15T22:33:52.338Z,14.00
2019-05-15T22:36:22.074Z,13.98
2019-05-15T22:38:52.070Z,14.63
2019-05-15T22:41:21.730Z,15.53
2019-05-15T22:43:51.350Z,15.55
2019-05-15T22:46:20.878Z,15.80
2019-05-15T22:48:50.564Z,15.98
2019-05-15T22:51:20.470Z,16.35
2019-05-15T22:53:50.127Z,16.45
2019-05-15T22:56:20.000Z,14.47
2019-05-15T22:58:49.585Z,13.93
2019-05-15T23:01:19.240Z,12.73
2019-05-15T23:03:50.185Z,14.03
2019-05-15T23:06:20.102Z,12.98
2019-05-15T23:08:50.018Z,14.55
2019-05-15T23:11:19.496Z,13.48
2019-05-15T23:13:49.171Z,14.38
2019-05-15T23:16:19.020Z,13.45
2019-05-15T23:18:49.343Z,14.95
2019-05-15T23:21:19.768Z,14.75
2019-05-15T23:23:50.388Z,14.13
2019-05-15T23:26:19.924Z,14.98
2019-05-15T23:28:49.849Z,13.05
2019-05-15T23:31:19.587Z,13.35
2019-05-15T23:33:49.345Z,14.15
2019-05-15T23:36:18.871Z,15.08
2019-05-15T23:38:48.923Z,15.40
2019-05-15T23:41:19.093Z,14.35
2019-05-15T23:43:48.766Z,15.28
2019-05-15T23:46:18.609Z,15.72
2019-05-15T23:48:48.706Z,15.68
2019-05-15T23:51:19.112Z,14.87
2019-05-15T23:53:48.939Z,14.10
2019-05-15T23:56:19.243Z,14.65
2019-05-15T23:58:49.284Z,13.68
